Time;durP1;ratioP1;P1;durP2;ratioP2;P2;SDS_P1;SDS_P2;PMS_P1;PMS_P2;Temp;Humidity;BMP_temperature;BMP_pressure;BME280_temperature;BME280_humidity;BME280_pressure;Samples;Min_cycle;Max_cycle;Signal;HPM_P1;HPM_P2
2022/05/30 00:00:12;;;;;;;8.52;7.57;;;;;;;;;;5079074;28;20654;-66
2022/05/30 00:02:38;;;;;;;10.10;7.30;;;;;;;;;;5077831;28;20036;-65
2022/05/30 00:05:04;;;;;;;14.07;8.60;;;;;;;;;;5082559;28;20743;-66
2022/05/30 00:07:30;;;;;;;17.85;10.55;;;;;;;;;;5081991;28;20476;-65
2022/05/30 00:09:55;;;;;;;15.98;10.85;;;;;;;;;;5081994;28;20465;-66
2022/05/30 00:12:21;;;;;;;11.25;10.02;;;;;;;;;;5080760;28;20039;-66
2022/05/30 00:14:46;;;;;;;16.98;11.75;;;;;;;;;;5082026;28;20093;-65
2022/05/30 00:17:12;;;;;;;14.82;10.75;;;;;;;;;;5081622;28;20040;-66
2022/05/30 00:19:38;;;;;;;22.95;10.13;;;;;;;;;;5081520;28;20040;-66
2022/05/30 00:22:05;;;;;;;55.08;11.13;;;;;;;;;;5080424;28;20036;-66
2022/05/30 00:24:32;;;;;;;28.60;11.55;;;;;;;;;;5080476;28;21297;-66
2022/05/30 00:26:57;;;;;;;20.17;13.35;;;;;;;;;;5082117;28;20497;-66
2022/05/30 00:29:23;;;;;;;18.10;12.00;;;;;;;;;;5063804;28;20055;-66
2022/05/30 00:31:49;;;;;;;13.07;10.52;;;;;;;;;;5081455;28;20036;-66
2022/05/30 00:34:14;;;;;;;10.93;9.57;;;;;;;;;;5079601;28;20425;-66
2022/05/30 00:36:40;;;;;;;11.20;8.15;;;;;;;;;;5081495;28;20197;-65
2022/05/30 00:39:05;;;;;;;11.98;10.45;;;;;;;;;;5081661;28;20506;-66
2022/05/30 00:41:30;;;;;;;14.52;11.25;;;;;;;;;;5081270;28;20039;-66
2022/05/30 00:43:56;;;;;;;12.48;10.68;;;;;;;;;;5062392;28;20032;-66
2022/05/30 00:46:21;;;;;;;10.88;9.70;;;;;;;;;;5078272;28;20167;-66
2022/05/30 00:48:50;;;;;;;10.35;8.70;;;;;;;;;;5081112;28;20039;-66
2022/05/30 00:51:27;;;;;;;9.60;8.30;;;;;;;;;;5081066;28;20046;-66
2022/05/30 00:53:54;;;;;;;9.32;7.53;;;;;;;;;;5080661;28;20048;-66
2022/05/30 00:56:22;;;;;;;10.68;7.65;;;;;;;;;;5062290;28;20128;-66
2022/05/30 00:58:49;;;;;;;10.68;7.63;;;;;;;;;;5049751;28;20035;-66
2022/05/30 01:01:17;;;;;;;7.78;6.82;;;;;;;;;;5063014;28;20034;-66
2022/05/30 01:06:32;;;;;;;7.57;6.07;;;;;;;;;;5073825;28;20093;-65
2022/05/30 01:09:01;;;;;;;8.95;5.72;;;;;;;;;;5080954;28;20048;-65
2022/05/30 01:11:26;;;;;;;13.73;5.47;;;;;;;;;;5052094;28;20119;-66
2022/05/30 01:13:52;;;;;;;8.82;4.82;;;;;;;;;;5080768;28;20130;-65
2022/05/30 01:16:19;;;;;;;14.18;5.55;;;;;;;;;;5081083;28;20500;-66
2022/05/30 01:18:51;;;;;;;11.25;5.20;;;;;;;;;;5062164;28;20492;-65
2022/05/30 01:21:54;;;;;;;25.27;6.28;;;;;;;;;;5079035;28;20565;-65
2022/05/30 01:24:39;;;;;;;52.35;7.47;;;;;;;;;;5062349;28;20059;-65
2022/05/30 01:28:09;;;;;;;22.85;7.32;;;;;;;;;;5080603;28;20130;-66
2022/05/30 01:30:40;;;;;;;8.23;7.43;;;;;;;;;;5061323;28;20544;-66
2022/05/30 01:33:06;;;;;;;7.18;6.47;;;;;;;;;;5063523;28;20046;-66
2022/05/30 01:35:32;;;;;;;7.13;6.43;;;;;;;;;;5066726;28;20036;-65
2022/05/30 01:38:02;;;;;;;7.10;6.25;;;;;;;;;;5083804;28;20044;-66
2022/05/30 01:40:30;;;;;;;6.05;5.53;;;;;;;;;;5048600;28;20034;-66
2022/05/30 01:42:56;;;;;;;23.58;6.05;;;;;;;;;;5068915;28;20028;-66
2022/05/30 01:45:24;;;;;;;21.88;5.55;;;;;;;;;;5066248;28;20024;-65
2022/05/30 01:47:50;;;;;;;8.20;5.43;;;;;;;;;;5066901;28;20047;-66
2022/05/30 01:50:16;;;;;;;10.98;5.97;;;;;;;;;;5073722;28;20027;-66
2022/05/30 01:52:41;;;;;;;22.38;5.43;;;;;;;;;;5066679;28;20028;-66
2022/05/30 01:55:08;;;;;;;15.10;5.57;;;;;;;;;;5066972;28;20071;-65
2022/05/30 01:57:53;;;;;;;17.92;6.03;;;;;;;;;;5083864;28;20119;-65
2022/05/30 02:00:42;;;;;;;5.85;5.35;;;;;;;;;;5038647;28;20097;-65
2022/05/30 02:03:08;;;;;;;18.63;5.90;;;;;;;;;;5075764;28;20032;-66
2022/05/30 02:05:33;;;;;;;29.08;5.82;;;;;;;;;;5067121;28;20047;-65
2022/05/30 02:08:01;;;;;;;16.67;5.72;;;;;;;;;;5085063;28;20077;-66
2022/05/30 02:10:31;;;;;;;16.30;5.68;;;;;;;;;;5059752;28;20101;-65
2022/05/30 02:13:00;;;;;;;7.78;5.53;;;;;;;;;;5074582;28;20109;-66
2022/05/30 02:18:33;;;;;;;6.43;5.82;;;;;;;;;;5067023;28;20064;-66
2022/05/30 02:20:58;;;;;;;6.60;6.00;;;;;;;;;;5073632;28;20043;-66
2022/05/30 02:23:24;;;;;;;8.20;7.25;;;;;;;;;;5084779;28;20061;-65
2022/05/30 02:25:50;;;;;;;8.15;7.35;;;;;;;;;;5085732;28;20066;-66
2022/05/30 02:28:16;;;;;;;9.82;8.82;;;;;;;;;;5085749;28;20086;-66
2022/05/30 02:30:41;;;;;;;9.55;8.10;;;;;;;;;;5076012;28;20043;-66
2022/05/30 02:38:36;;;;;;;7.53;6.40;;;;;;;;;;5083960;28;20042;-66
2022/05/30 02:41:19;;;;;;;6.45;5.88;;;;;;;;;;5070000;28;20508;-66
2022/05/30 02:43:53;;;;;;;17.42;6.43;;;;;;;;;;5066772;28;20166;-66
2022/05/30 02:46:19;;;;;;;20.10;5.43;;;;;;;;;;5049217;28;20135;-66
2022/05/30 02:48:45;;;;;;;63.60;5.30;;;;;;;;;;5083651;28;20043;-66
2022/05/30 02:51:11;;;;;;;128.30;6.43;;;;;;;;;;5066655;28;20032;-65
2022/05/30 02:53:36;;;;;;;94.47;6.18;;;;;;;;;;5066824;28;20484;-65
2022/05/30 02:56:31;;;;;;;75.25;5.47;;;;;;;;;;5084435;28;20220;-65
2022/05/30 02:58:58;;;;;;;29.65;6.10;;;;;;;;;;5084706;28;20115;-66
2022/05/30 03:01:25;;;;;;;196.45;8.05;;;;;;;;;;5083344;28;20040;-65
2022/05/30 03:03:51;;;;;;;56.78;6.53;;;;;;;;;;5066845;28;20085;-66
2022/05/30 03:06:17;;;;;;;47.88;6.85;;;;;;;;;;5082321;28;20032;-66
2022/05/30 03:08:43;;;;;;;11.88;5.65;;;;;;;;;;5083449;28;20381;-65
2022/05/30 03:11:10;;;;;;;33.47;5.55;;;;;;;;;;5084027;28;20058;-66
2022/05/30 03:13:36;;;;;;;31.77;6.70;;;;;;;;;;5083496;28;20043;-65
2022/05/30 03:16:02;;;;;;;27.70;6.38;;;;;;;;;;5064045;28;20085;-65
2022/05/30 03:18:29;;;;;;;32.75;6.57;;;;;;;;;;5080725;28;20639;-66
2022/05/30 03:20:54;;;;;;;52.58;7.57;;;;;;;;;;5065042;28;20032;-65
2022/05/30 03:23:20;;;;;;;76.30;7.80;;;;;;;;;;5083975;28;20032;-66
2022/05/30 03:26:00;;;;;;;131.98;8.82;;;;;;;;;;5065597;28;20120;-66
2022/05/30 03:28:31;;;;;;;55.05;8.63;;;;;;;;;;5065420;28;20109;-66
2022/05/30 03:30:58;;;;;;;67.07;8.38;;;;;;;;;;5081247;28;20059;-66
2022/05/30 03:33:24;;;;;;;39.92;8.40;;;;;;;;;;5081033;28;20035;-65
2022/05/30 03:35:49;;;;;;;250.27;11.75;;;;;;;;;;5064888;28;20046;-66
2022/05/30 03:38:37;;;;;;;63.92;8.50;;;;;;;;;;5065273;28;20451;-66
2022/05/30 03:41:40;;;;;;;97.90;9.68;;;;;;;;;;5020329;28;20123;-66
2022/05/30 03:44:18;;;;;;;57.97;9.70;;;;;;;;;;5011265;28;20223;-66
2022/05/30 03:46:44;;;;;;;129.10;10.73;;;;;;;;;;5053196;28;20500;-65
2022/05/30 03:49:11;;;;;;;186.90;10.60;;;;;;;;;;5064335;28;20043;-65
2022/05/30 03:51:36;;;;;;;145.20;10.18;;;;;;;;;;5063053;28;20032;-65
2022/05/30 03:54:02;;;;;;;101.88;9.38;;;;;;;;;;5060937;28;20404;-65
2022/05/30 03:56:27;;;;;;;53.15;8.70;;;;;;;;;;5062601;28;20151;-65
2022/05/30 03:58:53;;;;;;;125.13;12.15;;;;;;;;;;5064337;28;20043;-65
2022/05/30 04:01:18;;;;;;;115.60;12.48;;;;;;;;;;5064155;28;20032;-66
2022/05/30 04:03:44;;;;;;;50.00;9.90;;;;;;;;;;5062145;28;20031;-66
2022/05/30 04:06:09;;;;;;;38.22;10.45;;;;;;;;;;5063153;28;20046;-66
2022/05/30 04:08:36;;;;;;;139.48;14.05;;;;;;;;;;5063264;28;20032;-66
2022/05/30 04:11:20;;;;;;;34.00;12.75;;;;;;;;;;5081687;28;20097;-66
2022/05/30 04:14:03;;;;;;;14.63;10.30;;;;;;;;;;5079833;28;20516;-66
2022/05/30 04:16:29;;;;;;;15.73;11.43;;;;;;;;;;5080909;28;20040;-66
2022/05/30 04:19:01;;;;;;;15.80;10.20;;;;;;;;;;5062929;28;20985;-66
2022/05/30 04:21:27;;;;;;;16.95;9.85;;;;;;;;;;5081649;28;20746;-66
2022/05/30 04:23:52;;;;;;;12.60;8.38;;;;;;;;;;5064024;28;20078;-66
2022/05/30 04:26:21;;;;;;;32.90;8.80;;;;;;;;;;5063604;28;20040;-66
2022/05/30 04:28:50;;;;;;;43.40;9.20;;;;;;;;;;5064182;28;20031;-66
2022/05/30 04:31:34;;;;;;;41.70;9.95;;;;;;;;;;5082273;28;20064;-66
2022/05/30 04:34:00;;;;;;;74.30;9.27;;;;;;;;;;5081156;28;20028;-66
2022/05/30 04:36:26;;;;;;;67.18;8.13;;;;;;;;;;5055346;28;20397;-66
2022/05/30 04:38:54;;;;;;;55.33;7.72;;;;;;;;;;5065194;28;20032;-66
2022/05/30 04:41:38;;;;;;;47.65;7.80;;;;;;;;;;5083179;28;20096;-66
2022/05/30 04:44:22;;;;;;;53.30;7.30;;;;;;;;;;5082154;28;20565;-66
2022/05/30 04:47:11;;;;;;;56.05;6.78;;;;;;;;;;5081851;28;20043;-66
2022/05/30 04:49:41;;;;;;;38.92;5.93;;;;;;;;;;5063663;28;20063;-66
2022/05/30 04:52:08;;;;;;;56.58;6.82;;;;;;;;;;5079944;28;20042;-66
2022/05/30 04:54:33;;;;;;;6.72;5.45;;;;;;;;;;5080471;28;20027;-67
2022/05/30 04:57:17;;;;;;;29.92;4.85;;;;;;;;;;5080006;28;20055;-67
2022/05/30 04:59:50;;;;;;;11.27;4.30;;;;;;;;;;5062176;28;20127;-67
2022/05/30 05:02:16;;;;;;;14.52;4.78;;;;;;;;;;5078959;28;20165;-67
2022/05/30 05:04:42;;;;;;;15.52;4.10;;;;;;;;;;5050364;28;20658;-67
2022/05/30 05:07:08;;;;;;;33.72;3.67;;;;;;;;;;5062782;28;20035;-67
2022/05/30 05:09:55;;;;;;;13.90;4.35;;;;;;;;;;5061578;28;20032;-67
2022/05/30 05:12:49;;;;;;;;;;;;;;;;;;5061422;28;20097;-67
2022/05/30 05:15:15;;;;;;;12.75;4.20;;;;;;;;;;5078320;28;19916;-67
2022/05/30 05:18:03;;;;;;;46.08;4.57;;;;;;;;;;5076764;28;20058;-67
2022/05/30 05:20:29;;;;;;;19.17;4.47;;;;;;;;;;5063219;28;20046;-67
2022/05/30 05:22:55;;;;;;;13.32;3.63;;;;;;;;;;5077265;28;20032;-67
2022/05/30 05:25:41;;;;;;;43.60;4.35;;;;;;;;;;5078757;28;20039;-67
2022/05/30 05:28:25;;;;;;;14.75;3.78;;;;;;;;;;5064843;28;20141;-67
2022/05/30 05:30:50;;;;;;;8.57;3.83;;;;;;;;;;5059635;28;20122;-67
2022/05/30 05:33:18;;;;;;;24.77;4.07;;;;;;;;;;5060428;28;20873;-67
2022/05/30 05:35:46;;;;;;;43.60;4.22;;;;;;;;;;5060373;28;20856;-67
2022/05/30 05:38:13;;;;;;;32.05;4.57;;;;;;;;;;5060949;28;20028;-67
2022/05/30 05:40:45;;;;;;;83.75;5.32;;;;;;;;;;5062533;28;20039;-67
2022/05/30 05:43:12;;;;;;;25.42;5.78;;;;;;;;;;5061005;28;20031;-67
2022/05/30 05:45:40;;;;;;;4.95;4.43;;;;;;;;;;5078236;28;20035;-67
2022/05/30 05:48:10;;;;;;;10.32;4.25;;;;;;;;;;5081934;28;20031;-68
2022/05/30 05:50:41;;;;;;;33.33;4.82;;;;;;;;;;5057451;28;20143;-68
2022/05/30 05:53:08;;;;;;;7.32;4.30;;;;;;;;;;5063506;28;20070;-67
2022/05/30 05:55:34;;;;;;;11.95;4.95;;;;;;;;;;5061089;28;20037;-66
2022/05/30 05:58:01;;;;;;;5.45;4.40;;;;;;;;;;5068510;28;20067;-67
2022/05/30 06:00:27;;;;;;;7.60;4.03;;;;;;;;;;5066015;28;20066;-67
2022/05/30 06:02:52;;;;;;;6.53;4.18;;;;;;;;;;5065235;28;20063;-67
2022/05/30 06:05:32;;;;;;;8.23;4.60;;;;;;;;;;5075030;28;20032;-67
2022/05/30 06:08:23;;;;;;;4.82;4.32;;;;;;;;;;5060495;28;20097;-67
2022/05/30 06:11:12;;;;;;;7.50;5.07;;;;;;;;;;5060922;28;20837;-67
2022/05/30 06:13:44;;;;;;;7.35;5.15;;;;;;;;;;5060732;28;20066;-67
2022/05/30 06:16:16;;;;;;;5.55;5.05;;;;;;;;;;5078445;28;20032;-67
2022/05/30 06:18:49;;;;;;;5.22;4.65;;;;;;;;;;5062855;28;20489;-67
2022/05/30 06:21:17;;;;;;;5.25;4.78;;;;;;;;;;5065896;28;20576;-67
2022/05/30 06:23:46;;;;;;;8.48;5.20;;;;;;;;;;5082199;28;20036;-67
2022/05/30 06:26:46;;;;;;;7.07;4.70;;;;;;;;;;5082949;28;20102;-67
2022/05/30 06:29:27;;;;;;;6.50;5.50;;;;;;;;;;5065419;28;20397;-66
2022/05/30 06:31:53;;;;;;;7.93;7.20;;;;;;;;;;5049032;28;20046;-67
2022/05/30 06:34:19;;;;;;;12.20;6.28;;;;;;;;;;5065026;28;20035;-67
2022/05/30 06:36:44;;;;;;;9.52;6.80;;;;;;;;;;5064610;28;20039;-67
2022/05/30 06:39:10;;;;;;;8.43;6.88;;;;;;;;;;5081254;28;20032;-66
2022/05/30 06:41:40;;;;;;;9.50;6.75;;;;;;;;;;5083364;28;20118;-67
2022/05/30 06:44:08;;;;;;;8.15;7.35;;;;;;;;;;5063823;28;20028;-67
2022/05/30 06:46:52;;;;;;;7.50;6.80;;;;;;;;;;5083554;28;20043;-67
2022/05/30 06:49:37;;;;;;;8.13;6.60;;;;;;;;;;5082340;28;20511;-68
2022/05/30 06:52:03;;;;;;;7.45;6.05;;;;;;;;;;5065868;28;20077;-67
2022/05/30 06:54:31;;;;;;;7.40;5.57;;;;;;;;;;5081302;28;20055;-67
2022/05/30 06:59:40;;;;;;;5.05;4.65;;;;;;;;;;5064073;28;20039;-67
2022/05/30 07:02:08;;;;;;;6.25;5.40;;;;;;;;;;5065030;28;20388;-67
2022/05/30 07:04:51;;;;;;;5.15;4.47;;;;;;;;;;5083386;28;20126;-67
2022/05/30 07:07:39;;;;;;;5.82;5.32;;;;;;;;;;5083070;28;20054;-67
2022/05/30 07:10:30;;;;;;;5.70;5.20;;;;;;;;;;5063589;28;20067;-68
2022/05/30 07:13:01;;;;;;;5.32;4.82;;;;;;;;;;5082919;28;20047;-68
2022/05/30 07:15:27;;;;;;;6.22;5.18;;;;;;;;;;5067099;28;20043;-67
2022/05/30 07:17:53;;;;;;;6.78;5.50;;;;;;;;;;5064122;28;20040;-68
2022/05/30 07:20:20;;;;;;;6.45;5.82;;;;;;;;;;5065588;28;20032;-68
2022/05/30 07:23:04;;;;;;;8.65;6.40;;;;;;;;;;5082694;28;20109;-67
2022/05/30 07:26:06;;;;;;;6.43;5.80;;;;;;;;;;5048372;28;20129;-68
2022/05/30 07:28:51;;;;;;;7.53;6.25;;;;;;;;;;5082623;28;20101;-67
2022/05/30 07:31:35;;;;;;;6.50;5.38;;;;;;;;;;5080982;28;20054;-68
2022/05/30 07:34:19;;;;;;;6.43;4.55;;;;;;;;;;5081912;28;20055;-67
2022/05/30 07:37:07;;;;;;;4.97;4.55;;;;;;;;;;5082145;28;20116;-68
2022/05/30 07:39:52;;;;;;;5.35;4.60;;;;;;;;;;5050687;28;20035;-67
2022/05/30 07:42:36;;;;;;;4.32;3.92;;;;;;;;;;5080645;28;20085;-67
2022/05/30 07:45:22;;;;;;;4.53;3.90;;;;;;;;;;5081970;28;20042;-67
2022/05/30 07:47:57;;;;;;;4.45;4.05;;;;;;;;;;5063959;28;20438;-68
2022/05/30 07:50:40;;;;;;;4.18;3.70;;;;;;;;;;5080875;28;20039;-68
2022/05/30 07:53:25;;;;;;;4.75;3.70;;;;;;;;;;5080614;28;20066;-68
2022/05/30 07:56:16;;;;;;;3.83;3.42;;;;;;;;;;5053952;28;20051;-67
2022/05/30 07:58:43;;;;;;;4.20;3.58;;;;;;;;;;5064758;28;20776;-68
2022/05/30 08:01:14;;;;;;;3.30;3.00;;;;;;;;;;5077863;28;20158;-69
2022/05/30 08:03:41;;;;;;;3.60;3.00;;;;;;;;;;5061866;28;20032;-67
2022/05/30 08:06:36;;;;;;;3.25;2.72;;;;;;;;;;5081174;28;20141;-68
2022/05/30 08:09:20;;;;;;;3.90;3.03;;;;;;;;;;5082513;28;20151;-68
2022/05/30 08:11:58;;;;;;;3.05;2.85;;;;;;;;;;5064403;28;20028;-68
2022/05/30 08:14:44;;;;;;;2.80;2.60;;;;;;;;;;5039432;28;20048;-68
2022/05/30 08:17:10;;;;;;;6.88;2.53;;;;;;;;;;5062302;28;20046;-67
2022/05/30 08:19:35;;;;;;;2.40;2.20;;;;;;;;;;5063237;28;20032;-68
2022/05/30 08:22:07;;;;;;;2.60;2.40;;;;;;;;;;5071378;28;20032;-67
2022/05/30 08:24:47;;;;;;;3.05;2.53;;;;;;;;;;5078929;28;20094;-68
2022/05/30 08:27:15;;;;;;;2.60;2.40;;;;;;;;;;5073026;28;20036;-68
2022/05/30 08:29:47;;;;;;;2.30;2.10;;;;;;;;;;5083421;28;20047;-68
2022/05/30 08:32:14;;;;;;;2.40;2.20;;;;;;;;;;5081998;28;20159;-68
2022/05/30 08:35:02;;;;;;;2.55;2.03;;;;;;;;;;5082227;28;20059;-67
2022/05/30 08:37:30;;;;;;;3.38;2.45;;;;;;;;;;5066009;28;20129;-68
2022/05/30 08:42:47;;;;;;;2.40;2.20;;;;;;;;;;5079060;28;20135;-67
2022/05/30 08:45:17;;;;;;;2.65;2.45;;;;;;;;;;5081229;28;20581;-67
2022/05/30 08:48:13;;;;;;;3.00;2.70;;;;;;;;;;5073321;28;20144;-68
2022/05/30 08:51:25;;;;;;;3.40;2.50;;;;;;;;;;5062158;28;20032;-66
2022/05/30 08:54:16;;;;;;;6.82;2.85;;;;;;;;;;5062423;28;20373;-66
2022/05/30 08:56:56;;;;;;;2.53;2.33;;;;;;;;;;5062142;28;20040;-65
2022/05/30 08:59:55;;;;;;;2.47;2.33;;;;;;;;;;5080147;28;20066;-66
2022/05/30 09:02:30;;;;;;;2.50;2.27;;;;;;;;;;5062681;28;20038;-67
2022/05/30 09:05:17;;;;;;;2.22;2.03;;;;;;;;;;5072634;28;20647;-67
2022/05/30 09:07:53;;;;;;;2.63;2.33;;;;;;;;;;5062006;28;20052;-69
2022/05/30 09:10:37;;;;;;;2.15;1.80;;;;;;;;;;5078664;28;20032;-68
2022/05/30 09:13:25;;;;;;;1.77;1.50;;;;;;;;;;5061483;28;20140;-67
2022/05/30 09:16:14;;;;;;;1.67;1.40;;;;;;;;;;5062317;28;20042;-67
2022/05/30 09:18:47;;;;;;;2.42;1.50;;;;;;;;;;5079103;28;20050;-67
2022/05/30 09:21:15;;;;;;;2.25;1.67;;;;;;;;;;5079836;28;20047;-68
2022/05/30 09:23:45;;;;;;;3.78;1.52;;;;;;;;;;5078865;28;20046;-67
2022/05/30 09:26:16;;;;;;;2.17;1.38;;;;;;;;;;5062360;28;20036;-67
2022/05/30 09:28:54;;;;;;;1.38;1.27;;;;;;;;;;5079931;28;20036;-67
2022/05/30 09:31:59;;;;;;;1.70;1.20;;;;;;;;;;5081016;28;20113;-67
2022/05/30 09:34:46;;;;;;;1.50;1.27;;;;;;;;;;5079979;28;20050;-68
2022/05/30 09:37:45;;;;;;;1.63;1.50;;;;;;;;;;5045676;28;20055;-67
2022/05/30 09:40:47;;;;;;;1.55;1.40;;;;;;;;;;5061722;28;20496;-67
2022/05/30 09:43:30;;;;;;;1.50;1.40;;;;;;;;;;5060478;28;21027;-69
2022/05/30 09:46:14;;;;;;;1.80;1.13;;;;;;;;;;5079136;28;20052;-68
2022/05/30 09:49:24;;;;;;;4.18;1.60;;;;;;;;;;5070699;28;20124;-67
2022/05/30 09:51:55;;;;;;;1.40;1.20;;;;;;;;;;5055067;28;20123;-67
2022/05/30 09:54:26;;;;;;;1.85;1.45;;;;;;;;;;5062306;28;20047;-67
2022/05/30 09:56:59;;;;;;;3.28;1.15;;;;;;;;;;5084141;28;20061;-67
2022/05/30 09:59:37;;;;;;;3.60;1.70;;;;;;;;;;5082863;28;20488;-67
2022/05/30 10:02:31;;;;;;;1.65;1.55;;;;;;;;;;5082670;28;20047;-68
2022/05/30 10:05:02;;;;;;;2.13;1.70;;;;;;;;;;5065048;28;20036;-68
2022/05/30 10:07:29;;;;;;;1.92;1.50;;;;;;;;;;5064685;28;20039;-67
2022/05/30 10:10:44;;;;;;;2.40;1.80;;;;;;;;;;5065989;28;20036;-67
2022/05/30 10:13:11;;;;;;;1.90;1.67;;;;;;;;;;5032576;28;20479;-67
2022/05/30 10:15:58;;;;;;;2.72;1.50;;;;;;;;;;5082679;28;20074;-67
2022/05/30 10:18:28;;;;;;;1.77;1.60;;;;;;;;;;5064608;28;20040;-67
2022/05/30 10:21:06;;;;;;;1.52;1.42;;;;;;;;;;5072538;28;20043;-67
2022/05/30 10:30:42;;;;;;;1.15;1.05;;;;;;;;;;5083379;28;20090;-67
2022/05/30 10:33:48;;;;;;;2.72;1.70;;;;;;;;;;5018740;28;20045;-67
2022/05/30 10:36:45;;;;;;;3.15;1.40;;;;;;;;;;5056889;28;20096;-68
2022/05/30 10:39:32;;;;;;;1.63;1.30;;;;;;;;;;5080797;28;20039;-67
2022/05/30 10:42:10;;;;;;;2.97;1.40;;;;;;;;;;5049839;28;20050;-68
2022/05/30 10:44:44;;;;;;;1.42;1.08;;;;;;;;;;5055227;28;20556;-67
2022/05/30 10:47:18;;;;;;;5.47;1.23;;;;;;;;;;5082396;28;20035;-67
2022/05/30 10:50:01;;;;;;;2.13;1.33;;;;;;;;;;5054247;28;20040;-67
2022/05/30 10:52:35;;;;;;;1.30;1.20;;;;;;;;;;5083291;28;20040;-68
2022/05/30 10:55:32;;;;;;;2.28;1.65;;;;;;;;;;5064144;28;20034;-68
2022/05/30 10:58:48;;;;;;;1.63;1.30;;;;;;;;;;5057549;28;20044;-68
2022/05/30 11:02:03;;;;;;;1.40;1.25;;;;;;;;;;4964228;28;20088;-68
2022/05/30 11:04:52;;;;;;;2.17;1.10;;;;;;;;;;5001730;28;20037;-68
2022/05/30 11:07:45;;;;;;;1.33;1.23;;;;;;;;;;5081804;28;20016;-67
2022/05/30 11:10:23;;;;;;;1.92;1.17;;;;;;;;;;5064161;28;20096;-67
2022/05/30 11:13:20;;;;;;;2.22;1.00;;;;;;;;;;5056242;28;20493;-67
2022/05/30 11:16:22;;;;;;;1.50;1.30;;;;;;;;;;5057083;28;20149;-67
2022/05/30 11:19:20;;;;;;;1.35;1.25;;;;;;;;;;5082904;28;20055;-67
2022/05/30 11:22:30;;;;;;;1.35;0.85;;;;;;;;;;5080073;28;20028;-67
2022/05/30 11:24:56;;;;;;;1.38;1.23;;;;;;;;;;5082282;28;20028;-68
2022/05/30 11:27:27;;;;;;;2.10;1.13;;;;;;;;;;5082144;28;20653;-67
2022/05/30 11:30:20;;;;;;;1.60;1.00;;;;;;;;;;5082442;28;20097;-67
2022/05/30 11:33:02;;;;;;;1.73;1.10;;;;;;;;;;5081343;28;20400;-67
2022/05/30 11:35:35;;;;;;;2.30;1.30;;;;;;;;;;5080442;28;20044;-68
2022/05/30 11:38:19;;;;;;;3.08;1.38;;;;;;;;;;5081386;28;20044;-68
2022/05/30 11:40:56;;;;;;;2.15;1.00;;;;;;;;;;5082082;28;20052;-67
2022/05/30 11:43:30;;;;;;;2.53;1.10;;;;;;;;;;5081770;28;20048;-67
2022/05/30 11:46:28;;;;;;;1.95;1.20;;;;;;;;;;5081659;28;20067;-67
2022/05/30 11:48:58;;;;;;;1.92;1.20;;;;;;;;;;5082241;28;20035;-67
2022/05/30 11:51:38;;;;;;;2.45;1.13;;;;;;;;;;5081797;28;20042;-67
2022/05/30 11:54:37;;;;;;;1.40;1.20;;;;;;;;;;5082145;28;20036;-67
2022/05/30 11:57:25;;;;;;;1.40;0.95;;;;;;;;;;5067910;28;20052;-67
2022/05/30 12:00:09;;;;;;;1.42;1.13;;;;;;;;;;5080738;28;20036;-68
2022/05/30 12:03:08;;;;;;;1.10;1.02;;;;;;;;;;5080829;28;20060;-66
2022/05/30 12:05:53;;;;;;;2.80;1.38;;;;;;;;;;5081819;28;20393;-67
2022/05/30 12:09:00;;;;;;;7.05;1.33;;;;;;;;;;5080470;28;20027;-68
2022/05/30 12:11:34;;;;;;;1.80;1.20;;;;;;;;;;5042788;28;20403;-68
2022/05/30 12:14:18;;;;;;;1.15;1.00;;;;;;;;;;5081240;28;20051;-67
2022/05/30 12:17:10;;;;;;;2.00;1.25;;;;;;;;;;5080984;28;20054;-67
2022/05/30 12:25:35;;;;;;;1.90;1.20;;;;;;;;;;5080954;28;20036;-68
2022/05/30 12:28:27;;;;;;;1.08;0.90;;;;;;;;;;5080854;28;20092;-69
2022/05/30 12:30:58;;;;;;;1.20;1.10;;;;;;;;;;5031550;28;20416;-67
2022/05/30 12:33:29;;;;;;;1.52;1.17;;;;;;;;;;5079401;28;20063;-69
2022/05/30 12:36:10;;;;;;;1.35;1.15;;;;;;;;;;5076188;28;20066;-67
2022/05/30 12:38:55;;;;;;;5.78;1.25;;;;;;;;;;5081385;28;20069;-67
2022/05/30 12:41:31;;;;;;;8.63;1.00;;;;;;;;;;5079072;28;20428;-69
2022/05/30 12:43:58;;;;;;;3.17;1.15;;;;;;;;;;5080768;28;20044;-67
2022/05/30 12:46:30;;;;;;;1.45;1.10;;;;;;;;;;5081076;28;20040;-68
2022/05/30 12:48:58;;;;;;;;;;;;;;;;;;5073750;28;20577;-68
2022/05/30 12:51:37;;;;;;;1.30;1.20;;;;;;;;;;5076250;28;20396;-67
2022/05/30 12:54:02;;;;;;;4.30;1.30;;;;;;;;;;5076976;28;20055;-68
2022/05/30 12:56:37;;;;;;;4.85;1.48;;;;;;;;;;5078837;28;20048;-68
2022/05/30 12:59:02;;;;;;;4.75;1.67;;;;;;;;;;5078451;28;20051;-67
2022/05/30 13:01:40;;;;;;;3.20;1.30;;;;;;;;;;5076801;28;20040;-68
2022/05/30 13:04:34;;;;;;;3.92;1.10;;;;;;;;;;5077441;28;20043;-68
2022/05/30 13:07:02;;;;;;;4.10;1.10;;;;;;;;;;5078910;28;20559;-67
2022/05/30 13:09:36;;;;;;;3.47;0.90;;;;;;;;;;5076466;28;20032;-68
2022/05/30 13:12:10;;;;;;;2.15;1.00;;;;;;;;;;5079386;28;20046;-67
2022/05/30 13:15:14;;;;;;;3.95;1.10;;;;;;;;;;5078491;28;20040;-68
2022/05/30 13:17:51;;;;;;;2.38;1.02;;;;;;;;;;5079688;28;20135;-68
2022/05/30 13:20:46;;;;;;;1.25;1.00;;;;;;;;;;5079753;28;20101;-69
2022/05/30 13:23:15;;;;;;;1.75;1.10;;;;;;;;;;5077042;28;20052;-68
2022/05/30 13:25:50;;;;;;;1.35;1.20;;;;;;;;;;5079115;28;20035;-68
2022/05/30 13:28:20;;;;;;;1.17;0.90;;;;;;;;;;5082278;28;20157;-67
2022/05/30 13:30:46;;;;;;;1.08;1.00;;;;;;;;;;5086022;28;20044;-67
2022/05/30 13:33:22;;;;;;;1.85;1.30;;;;;;;;;;5085719;28;20046;-68
2022/05/30 13:35:51;;;;;;;2.42;1.20;;;;;;;;;;5084935;28;20139;-68
2022/05/30 13:38:16;;;;;;;2.65;1.27;;;;;;;;;;5067720;28;20043;-67
2022/05/30 13:40:46;;;;;;;1.38;1.20;;;;;;;;;;5086094;28;20382;-68
2022/05/30 13:43:30;;;;;;;2.17;1.20;;;;;;;;;;5085770;28;20040;-68
2022/05/30 13:45:57;;;;;;;2.25;0.90;;;;;;;;;;5084593;28;20059;-68
2022/05/30 13:48:22;;;;;;;7.28;1.30;;;;;;;;;;5085611;28;20100;-68
2022/05/30 13:50:53;;;;;;;1.73;1.20;;;;;;;;;;5066009;28;20515;-68
2022/05/30 13:53:23;;;;;;;1.90;1.10;;;;;;;;;;5085234;28;20031;-68
2022/05/30 13:55:53;;;;;;;2.60;0.98;;;;;;;;;;5080531;28;21675;-68
2022/05/30 13:58:20;;;;;;;3.17;1.17;;;;;;;;;;5082960;28;20055;-68
2022/05/30 14:00:46;;;;;;;1.13;0.90;;;;;;;;;;5084022;28;20378;-68
2022/05/30 14:03:14;;;;;;;2.03;1.00;;;;;;;;;;5083140;28;20036;-69
2022/05/30 14:05:42;;;;;;;3.28;1.08;;;;;;;;;;5083829;28;20067;-68
2022/05/30 14:08:30;;;;;;;1.10;0.90;;;;;;;;;;5084697;28;20024;-68
2022/05/30 14:11:00;;;;;;;2.90;1.15;;;;;;;;;;5085702;28;20079;-68
2022/05/30 14:13:35;;;;;;;2.05;1.13;;;;;;;;;;5085497;28;20032;-69
2022/05/30 14:16:26;;;;;;;1.27;1.15;;;;;;;;;;5085527;28;20135;-69
2022/05/30 14:18:57;;;;;;;3.63;1.10;;;;;;;;;;5085111;28;20101;-69
2022/05/30 14:21:25;;;;;;;3.25;0.95;;;;;;;;;;5085145;28;20094;-68
2022/05/30 14:23:54;;;;;;;4.85;1.40;;;;;;;;;;5084677;28;20036;-68
2022/05/30 14:26:30;;;;;;;3.80;1.35;;;;;;;;;;5085013;28;20032;-68
2022/05/30 14:29:05;;;;;;;2.58;1.20;;;;;;;;;;5085622;28;20519;-68
2022/05/30 14:31:33;;;;;;;0.80;0.80;;;;;;;;;;5084484;28;20492;-68
2022/05/30 14:34:10;;;;;;;1.88;1.20;;;;;;;;;;5083787;28;20035;-68
2022/05/30 14:36:42;;;;;;;1.80;0.98;;;;;;;;;;5084179;28;20103;-68
2022/05/30 14:39:13;;;;;;;;;;;;;;;;;;5082747;28;20044;-69
2022/05/30 14:41:49;;;;;;;2.00;1.10;;;;;;;;;;5081846;28;20604;-68
2022/05/30 14:44:19;;;;;;;1.63;0.90;;;;;;;;;;5082532;28;20114;-68
2022/05/30 14:46:44;;;;;;;1.55;0.80;;;;;;;;;;5083254;28;20089;-68
2022/05/30 14:49:25;;;;;;;1.33;1.10;;;;;;;;;;5082724;28;20043;-68
2022/05/30 14:51:59;;;;;;;1.10;1.00;;;;;;;;;;5083254;28;20032;-67
2022/05/30 14:54:31;;;;;;;1.90;1.10;;;;;;;;;;5084187;28;20556;-67
2022/05/30 14:57:00;;;;;;;3.83;1.42;;;;;;;;;;5084121;28;20253;-67
2022/05/30 14:59:31;;;;;;;2.42;1.05;;;;;;;;;;5084180;28;20101;-68
2022/05/30 15:01:56;;;;;;;1.25;0.80;;;;;;;;;;5065367;28;20044;-67
2022/05/30 15:04:22;;;;;;;1.70;1.08;;;;;;;;;;5080148;28;20047;-67
2022/05/30 15:06:58;;;;;;;2.03;1.10;;;;;;;;;;5081806;28;20050;-68
2022/05/30 15:09:24;;;;;;;1.38;1.17;;;;;;;;;;5080318;28;20675;-68
2022/05/30 15:11:50;;;;;;;1.60;1.00;;;;;;;;;;5079862;28;20031;-68
2022/05/30 15:14:21;;;;;;;3.72;1.23;;;;;;;;;;5079242;28;20192;-68
2022/05/30 15:16:47;;;;;;;1.35;0.93;;;;;;;;;;5080364;28;20044;-67
2022/05/30 15:19:13;;;;;;;2.50;0.90;;;;;;;;;;5081652;28;20039;-68
2022/05/30 15:22:00;;;;;;;1.40;0.82;;;;;;;;;;5079567;28;20104;-68
2022/05/30 15:24:32;;;;;;;3.20;0.90;;;;;;;;;;5078955;28;20102;-68
2022/05/30 15:26:58;;;;;;;;;;;;;;;;;;5081878;28;20068;-67
2022/05/30 15:29:24;;;;;;;2.67;1.05;;;;;;;;;;5063085;28;20442;-67
2022/05/30 15:31:51;;;;;;;4.05;1.00;;;;;;;;;;5080481;28;20640;-66
2022/05/30 15:34:17;;;;;;;1.52;0.95;;;;;;;;;;5079559;28;20032;-67
2022/05/30 15:36:44;;;;;;;4.43;1.40;;;;;;;;;;5078882;28;20047;-66
2022/05/30 15:39:15;;;;;;;0.95;0.90;;;;;;;;;;5081956;28;20164;-67
2022/05/30 15:41:42;;;;;;;;;;;;;;;;;;5081171;28;20035;-66
2022/05/30 15:44:13;;;;;;;2.45;1.10;;;;;;;;;;5081652;28;20433;-67
2022/05/30 15:46:38;;;;;;;4.03;1.20;;;;;;;;;;5081180;28;20036;-67
2022/05/30 15:49:04;;;;;;;1.63;1.13;;;;;;;;;;5082622;28;20040;-66
2022/05/30 15:51:29;;;;;;;3.35;1.20;;;;;;;;;;5079899;28;20078;-66
2022/05/30 15:59:33;;;;;;;3.83;1.40;;;;;;;;;;5062836;28;20661;-69